Adams, New York
Current Conditions -  °F | °C
As of 3:56 PM on Tuesday 25 Nov 2014 (Local Time) from KART Reporting Station
Overcast Overcast  
Wind Chill: 34°   Ceiling: 3800
Heat Index: 42°   Visibility: 10mi
Dew Point: 33°   Wind: 17mph
Humidity: 70%   Direction: 260°W
Pressure: 29.96"   Gusts: 28mph
Location:  43.81°N, 76.02°W
Report Text: KART 252056Z AUTO 26015G24KT 10SM FEW016 BKN038 OVC046 06/01 A2996 RMK AO2 SLP146 T00560006 52023
Loading
Personal Weather Stations






























Interactive Weather Map New forecast layout! Learn more

10-Day Weather Forecast

Advertisements
Track Severe Weather on mobile